createdAt,value
2022-08-17T00:00:43.125Z,99387.47
2022-08-17T00:03:17.500Z,99384.94
2022-08-17T00:05:49.620Z,99380.88
2022-08-17T00:08:21.287Z,99380.16
2022-08-17T00:10:51.420Z,99375.28
2022-08-17T00:13:26.088Z,99380.75
2022-08-17T00:15:58.975Z,99380.19
2022-08-17T00:18:58.346Z,99375.16
2022-08-17T00:21:23.781Z,99387.31
2022-08-17T00:23:55.437Z,99388.44
2022-08-17T00:26:43.656Z,99384.25
2022-08-17T00:29:19.757Z,99389.56
2022-08-17T00:31:50.062Z,99377.13
2022-08-17T00:34:19.382Z,99384.69
2022-08-17T00:36:48.415Z,99382.75
2022-08-17T00:39:17.380Z,99390.56
2022-08-17T00:41:48.727Z,99380.50
2022-08-17T00:44:19.894Z,99388.06
2022-08-17T00:46:48.525Z,99387.47
2022-08-17T00:49:19.499Z,99384.22
2022-08-17T00:51:53.655Z,99386.75
2022-08-17T00:54:28.706Z,99382.41
2022-08-17T00:57:02.379Z,99377.09
2022-08-17T00:59:40.568Z,99373.31
2022-08-17T01:02:11.354Z,99381.88
2022-08-17T01:04:41.208Z,99377.53
2022-08-17T01:07:13.541Z,99384.41
2022-08-17T01:09:44.271Z,99379.91
2022-08-17T01:12:14.147Z,99381.56
2022-08-17T01:14:44.420Z,99385.41
2022-08-17T01:17:13.344Z,99390.00
2022-08-17T01:19:44.082Z,99385.78
2022-08-17T01:22:22.756Z,99388.00
2022-08-17T01:24:54.492Z,99390.66
2022-08-17T01:27:23.429Z,99385.66
2022-08-17T01:30:57.465Z,99387.03
2022-08-17T01:32:57.070Z,99387.72
2022-08-17T01:35:25.719Z,99399.06
2022-08-17T01:37:56.196Z,99392.78
2022-08-17T01:40:30.351Z,99385.63
2022-08-17T01:43:01.875Z,99394.03
2022-08-17T01:45:35.157Z,99392.91
2022-08-17T01:48:03.640Z,99390.66
2022-08-17T01:50:35.534Z,99396.69
2022-08-17T01:53:07.193Z,99400.03
2022-08-17T01:55:41.730Z,99405.63
2022-08-17T01:58:10.533Z,99402.28
2022-08-17T02:00:59.782Z,99397.22
2022-08-17T02:03:31.068Z,99407.03
2022-08-17T02:06:00.476Z,99410.41
2022-08-17T02:08:37.324Z,99404.66
2022-08-17T02:11:16.097Z,99408.56
2022-08-17T02:13:45.547Z,99401.94
2022-08-17T02:16:15.818Z,99406.28
2022-08-17T02:18:44.978Z,99403.63
2022-08-17T02:21:15.181Z,99402.50
2022-08-17T02:23:49.407Z,99400.16
2022-08-17T02:26:25.901Z,99405.00
2022-08-17T02:28:55.997Z,99408.94
2022-08-17T02:31:24.586Z,99408.78
2022-08-17T02:34:00.428Z,99404.88
2022-08-17T02:36:34.217Z,99411.28
2022-08-17T02:39:06.662Z,99410.31
2022-08-17T02:41:35.682Z,99416.16
2022-08-17T02:44:06.126Z,99416.44
2022-08-17T02:46:35.407Z,99414.44
2022-08-17T02:49:05.160Z,99421.94
2022-08-17T02:51:34.310Z,99423.88
2022-08-17T02:54:41.692Z,99425.84
2022-08-17T02:56:53.560Z,99422.88
2022-08-17T02:59:22.589Z,99425.91
2022-08-17T03:01:51.564Z,99424.38
2022-08-17T03:04:20.565Z,99424.97
2022-08-17T03:06:50.445Z,99421.03
2022-08-17T03:09:20.764Z,99422.75
2022-08-17T03:11:53.168Z,99421.03
2022-08-17T03:14:25.065Z,99423.56
2022-08-17T03:16:55.259Z,99431.53
2022-08-17T03:19:24.404Z,99429.84
2022-08-17T03:21:55.198Z,99427.78
2022-08-17T03:24:28.943Z,99429.28
2022-08-17T03:26:58.554Z,99441.16
2022-08-17T03:29:27.271Z,99441.41
2022-08-17T03:31:55.852Z,99436.63
2022-08-17T03:34:25.541Z,99445.03
2022-08-17T03:36:54.953Z,99444.78
2022-08-17T03:39:25.834Z,99443.91
2022-08-17T03:41:54.903Z,99446.56
2022-08-17T03:44:24.190Z,99438.59
2022-08-17T03:47:10.693Z,99443.03
2022-08-17T03:49:57.971Z,99445.56
2022-08-17T03:52:44.100Z,99443.63
2022-08-17T03:55:36.298Z,99448.78
2022-08-17T03:58:05.340Z,99456.63
2022-08-17T04:00:36.500Z,99455.66
2022-08-17T04:03:09.063Z,99454.69
2022-08-17T04:05:38.390Z,99454.44
2022-08-17T04:08:10.473Z,99453.19
2022-08-17T04:10:45.144Z,99458.22
2022-08-17T04:13:15.511Z,99454.63
2022-08-17T04:15:53.129Z,99458.69
2022-08-17T04:18:22.148Z,99454.19
2022-08-17T04:20:51.300Z,99459.59
2022-08-17T04:23:20.939Z,99454.00
2022-08-17T04:25:53.370Z,99449.41
2022-08-17T04:28:22.571Z,99443.81
2022-08-17T04:30:52.160Z,99448.88
2022-08-17T04:33:24.314Z,99445.81
2022-08-17T04:35:55.343Z,99449.06
2022-08-17T04:38:27.497Z,99439.53
2022-08-17T04:41:16.542Z,99449.53
2022-08-17T04:43:48.155Z,99442.69
2022-08-17T04:46:18.618Z,99442.28
2022-08-17T04:48:51.041Z,99441.72
2022-08-17T04:51:22.776Z,99435.97
2022-08-17T04:53:54.430Z,99450.28
2022-08-17T04:56:27.391Z,99459.69
2022-08-17T04:58:59.083Z,99460.66
2022-08-17T05:01:29.691Z,99463.63
2022-08-17T05:04:02.382Z,99469.13
2022-08-17T05:06:50.006Z,99466.88
2022-08-17T05:09:19.876Z,99465.75
2022-08-17T05:11:50.881Z,99470.94
2022-08-17T05:14:32.854Z,99472.06
2022-08-17T05:17:07.359Z,99473.47
2022-08-17T05:19:41.312Z,99476.53
2022-08-17T05:22:10.203Z,99481.28
2022-08-17T05:24:43.658Z,99477.09
2022-08-17T05:27:24.694Z,99467.41
2022-08-17T05:30:00.919Z,99479.34
2022-08-17T05:32:38.921Z,99477.94
2022-08-17T05:35:17.806Z,99483.81
2022-08-17T05:37:46.944Z,99473.16
2022-08-17T05:40:16.498Z,99471.16
2022-08-17T05:42:47.363Z,99476.47
2022-08-17T05:45:23.665Z,99479.50
2022-08-17T05:48:09.276Z,99487.19
2022-08-17T05:50:46.159Z,99486.31
2022-08-17T05:53:24.440Z,99484.56
2022-08-17T05:56:04.058Z,99489.31
2022-08-17T05:58:42.741Z,99489.00
2022-08-17T06:01:21.216Z,99484.47
2022-08-17T06:03:54.977Z,99490.84
2022-08-17T06:06:42.369Z,99500.06
2022-08-17T06:09:36.624Z,99497.00
2022-08-17T06:12:23.569Z,99495.56
2022-08-17T06:15:14.936Z,99492.13
2022-08-17T06:17:44.975Z,99489.94
2022-08-17T06:20:16.323Z,99499.09
2022-08-17T06:22:48.531Z,99495.84
2022-08-17T06:25:20.300Z,99504.75
2022-08-17T06:27:53.522Z,99501.00
2022-08-17T06:30:26.289Z,99503.22
2022-08-17T06:32:59.815Z,99501.72
2022-08-17T06:35:34.437Z,99494.91
2022-08-17T06:38:37.178Z,99503.53
2022-08-17T06:41:15.146Z,99515.66
2022-08-17T06:44:03.010Z,99507.13
2022-08-17T06:46:39.432Z,99513.31
2022-08-17T06:49:20.182Z,99517.88
2022-08-17T06:51:54.466Z,99515.09
2022-08-17T06:54:34.775Z,99510.34
2022-08-17T06:57:14.748Z,99506.91
2022-08-17T06:59:55.702Z,99507.59
2022-08-17T07:03:02.809Z,99507.78
2022-08-17T07:05:38.830Z,99518.69
2022-08-17T07:08:15.131Z,99514.00
2022-08-17T07:10:50.530Z,99510.50
2022-08-17T07:13:31.347Z,99512.03
2022-08-17T07:16:17.253Z,99517.38
2022-08-17T07:18:48.613Z,99517.19
2022-08-17T07:21:31.127Z,99515.50
2022-08-17T07:24:28.103Z,99517.34
2022-08-17T07:27:10.919Z,99522.38
2022-08-17T07:29:44.253Z,99524.72
2022-08-17T07:32:18.680Z,99533.72
2022-08-17T07:35:41.069Z,99523.41
2022-08-17T07:38:24.989Z,99524.88
2022-08-17T07:41:06.691Z,99527.00
2022-08-17T07:43:38.125Z,99531.78
2022-08-17T07:46:37.524Z,99531.03
2022-08-17T07:49:23.163Z,99530.72
2022-08-17T07:52:24.146Z,99527.34
2022-08-17T07:54:50.080Z,99524.09
2022-08-17T07:57:37.224Z,99526.47
2022-08-17T08:00:30.810Z,99533.19
2022-08-17T08:03:13.473Z,99529.75
2022-08-17T08:05:54.220Z,99525.34
2022-08-17T08:08:28.690Z,99524.75
2022-08-17T08:11:06.432Z,99523.88
2022-08-17T08:13:40.680Z,99526.13
2022-08-17T08:16:24.557Z,99528.31
2022-08-17T08:18:58.102Z,99525.84
2022-08-17T08:21:36.737Z,99534.19
2022-08-17T08:24:24.524Z,99539.66
2022-08-17T08:27:09.323Z,99543.47
2022-08-17T08:29:47.629Z,99543.59
2022-08-17T08:32:21.921Z,99545.88
2022-08-17T08:35:04.130Z,99543.47
2022-08-17T08:37:45.283Z,99548.78
2022-08-17T08:40:31.614Z,99541.63
2022-08-17T08:43:10.273Z,99542.09
2022-08-17T08:45:52.341Z,99542.25
2022-08-17T08:48:55.998Z,99541.63
2022-08-17T08:51:39.015Z,99537.56
2022-08-17T08:54:26.843Z,99547.38
2022-08-17T09:00:08.172Z,99540.31
2022-08-17T09:03:02.758Z,99539.97
2022-08-17T09:05:44.324Z,99539.56
2022-08-17T09:08:26.128Z,99547.22
2022-08-17T09:11:03.277Z,99547.88
2022-08-17T09:13:43.589Z,99546.63
2022-08-17T09:16:17.623Z,99546.25
2022-08-17T09:19:00.773Z,99540.84
2022-08-17T09:21:47.888Z,99541.50
2022-08-17T09:24:25.185Z,99532.75
2022-08-17T09:27:00.187Z,99543.47
2022-08-17T09:29:35.418Z,99546.69
2022-08-17T09:32:10.750Z,99554.94
2022-08-17T09:34:46.991Z,99551.28
2022-08-17T09:37:24.343Z,99555.56
2022-08-17T09:40:05.682Z,99552.69
2022-08-17T09:42:43.995Z,99556.06
2022-08-17T09:45:29.276Z,99554.81
2022-08-17T09:48:04.902Z,99558.63
2022-08-17T09:51:03.139Z,99560.06
2022-08-17T09:53:33.357Z,99556.44
2022-08-17T09:56:19.349Z,99560.13
2022-08-17T09:59:14.811Z,99554.94
2022-08-17T10:01:52.937Z,99557.56
2022-08-17T10:04:33.813Z,99568.31
2022-08-17T10:07:08.549Z,99564.47
2022-08-17T10:09:45.958Z,99564.47
2022-08-17T10:12:30.102Z,99570.16
2022-08-17T10:15:09.846Z,99562.72
2022-08-17T10:17:53.576Z,99562.72
2022-08-17T10:20:27.688Z,99563.75
2022-08-17T10:23:18.652Z,99567.09
2022-08-17T10:26:10.047Z,99567.75
2022-08-17T10:28:44.914Z,99567.97
2022-08-17T10:31:40.800Z,99566.06
2022-08-17T10:34:41.015Z,99567.13
2022-08-17T10:37:25.404Z,99566.03
2022-08-17T10:40:08.878Z,99574.84
2022-08-17T10:42:47.311Z,99572.31
2022-08-17T10:45:20.670Z,99565.84
2022-08-17T10:48:05.104Z,99571.50
2022-08-17T10:50:49.848Z,99568.97
2022-08-17T10:53:55.846Z,99568.06
2022-08-17T10:56:41.731Z,99576.19
2022-08-17T10:59:10.609Z,99570.44
2022-08-17T11:02:13.406Z,99567.78
2022-08-17T11:04:59.837Z,99577.75
2022-08-17T11:07:47.782Z,99576.50
2022-08-17T11:10:51.916Z,99574.63
2022-08-17T11:13:30.855Z,99577.28
2022-08-17T11:16:13.285Z,99573.16
2022-08-17T11:19:10.184Z,99573.59
2022-08-17T11:22:15.545Z,99572.09
2022-08-17T11:24:51.742Z,99561.03
2022-08-17T11:27:28.125Z,99568.44
2022-08-17T11:30:02.425Z,99566.50
2022-08-17T11:32:39.102Z,99576.19
2022-08-17T11:35:34.977Z,99572.53
2022-08-17T11:38:16.445Z,99567.84
2022-08-17T11:41:15.527Z,99576.84
2022-08-17T11:44:02.132Z,99574.03
2022-08-17T11:47:00.082Z,99567.53
2022-08-17T11:50:01.731Z,99571.22
2022-08-17T11:52:40.807Z,99569.50
2022-08-17T11:55:34.430Z,99567.59
2022-08-17T11:58:06.616Z,99566.88
2022-08-17T12:00:51.577Z,99572.78
2022-08-17T12:03:27.105Z,99569.66
2022-08-17T12:06:05.783Z,99573.94
2022-08-17T12:08:41.949Z,99566.44
2022-08-17T12:11:19.101Z,99567.91
2022-08-17T12:14:16.952Z,99557.25
2022-08-17T12:16:59.992Z,99550.00
2022-08-17T12:19:29.823Z,99565.41
2022-08-17T12:22:05.587Z,99568.28
2022-08-17T12:24:46.486Z,99569.75
2022-08-17T12:27:48.938Z,99567.63
2022-08-17T12:30:19.648Z,99568.06
2022-08-17T12:32:50.355Z,99555.25
2022-08-17T12:35:22.795Z,99564.00
2022-08-17T12:37:52.982Z,99558.97
2022-08-17T12:40:27.676Z,99563.13
2022-08-17T12:42:59.339Z,99560.78
2022-08-17T12:45:32.423Z,99565.16
2022-08-17T12:48:02.826Z,99565.91
2022-08-17T12:50:32.421Z,99562.97
2022-08-17T12:53:02.880Z,99558.00
2022-08-17T12:55:39.051Z,99566.72
2022-08-17T12:58:14.346Z,99567.09
2022-08-17T13:00:50.239Z,99566.66
2022-08-17T13:03:21.214Z,99560.16
2022-08-17T13:05:59.115Z,99569.00
2022-08-17T13:08:31.481Z,99567.78
2022-08-17T13:11:02.688Z,99558.75
2022-08-17T13:13:33.138Z,99567.88
2022-08-17T13:16:09.885Z,99558.06
2022-08-17T13:18:45.314Z,99560.56
2022-08-17T13:21:23.888Z,99555.38
2022-08-17T13:23:58.822Z,99556.06
2022-08-17T13:26:32.675Z,99550.22
2022-08-17T13:29:03.148Z,99546.44
2022-08-17T13:31:47.458Z,99546.91
2022-08-17T13:34:44.536Z,99549.09
2022-08-17T13:37:33.702Z,99549.72
2022-08-17T13:40:25.831Z,99550.63
2022-08-17T13:42:56.639Z,99551.31
2022-08-17T13:46:08.781Z,99553.34
2022-08-17T13:48:39.406Z,99557.59
2022-08-17T13:51:22.634Z,99558.06
2022-08-17T13:54:13.611Z,99552.03
2022-08-17T13:56:55.419Z,99553.69
2022-08-17T13:59:52.609Z,99555.13
2022-08-17T14:02:20.316Z,99552.34
2022-08-17T14:04:50.666Z,99550.09
2022-08-17T14:07:29.744Z,99549.25
2022-08-17T14:10:02.155Z,99543.78
2022-08-17T14:12:33.246Z,99541.25
2022-08-17T14:15:02.314Z,99547.38
2022-08-17T14:17:35.002Z,99540.31
2022-08-17T14:20:12.049Z,99538.91
2022-08-17T14:22:45.664Z,99538.69
2022-08-17T14:25:16.734Z,99537.28
2022-08-17T14:27:52.893Z,99540.84
2022-08-17T14:30:25.839Z,99546.03
2022-08-17T14:32:58.293Z,99546.28
2022-08-17T14:35:29.566Z,99556.69
2022-08-17T14:37:58.689Z,99557.13
2022-08-17T14:40:28.311Z,99551.28
2022-08-17T14:42:58.079Z,99545.63
2022-08-17T14:45:33.016Z,99545.88
2022-08-17T14:48:05.794Z,99540.25
2022-08-17T14:50:38.473Z,99558.91
2022-08-17T14:53:08.642Z,99552.22
2022-08-17T14:55:41.524Z,99552.66
2022-08-17T14:58:10.510Z,99548.28
2022-08-17T15:00:40.214Z,99542.47
2022-08-17T15:03:08.837Z,99545.19
2022-08-17T15:05:40.402Z,99549.53
2022-08-17T15:08:09.395Z,99554.31
2022-08-17T15:10:39.388Z,99549.50
2022-08-17T15:13:19.260Z,99545.53
2022-08-17T15:15:49.203Z,99546.78
2022-08-17T15:18:19.100Z,99550.34
2022-08-17T15:20:51.098Z,99552.19
2022-08-17T15:23:22.413Z,99546.31
2022-08-17T15:25:52.627Z,99551.69
2022-08-17T15:28:23.171Z,99548.94
2022-08-17T15:30:52.924Z,99544.56
2022-08-17T15:33:30.414Z,99540.31
2022-08-17T15:36:03.513Z,99537.31
2022-08-17T15:38:35.465Z,99538.91
2022-08-17T15:41:04.921Z,99537.16
2022-08-17T15:43:34.148Z,99536.28
2022-08-17T15:46:05.854Z,99541.81
2022-08-17T15:48:42.462Z,99536.78
2022-08-17T15:51:14.992Z,99541.09
2022-08-17T15:53:45.311Z,99537.31
2022-08-17T15:56:15.879Z,99538.91
2022-08-17T15:58:47.061Z,99536.34
2022-08-17T16:02:53.876Z,99542.53
2022-08-17T16:04:26.897Z,99541.63
2022-08-17T16:07:00.569Z,99551.47
2022-08-17T16:09:29.723Z,99548.84
2022-08-17T16:11:59.413Z,99548.47
2022-08-17T16:14:33.578Z,99558.06
2022-08-17T16:17:04.692Z,99558.69
2022-08-17T16:19:34.521Z,99557.69
2022-08-17T16:22:05.461Z,99555.09
2022-08-17T16:24:34.955Z,99556.88
2022-08-17T16:27:04.637Z,99544.31
2022-08-17T16:29:42.538Z,99552.97
2022-08-17T16:32:14.709Z,99562.59
2022-08-17T16:34:44.250Z,99559.19
2022-08-17T16:37:14.724Z,99561.97
2022-08-17T16:39:43.631Z,99559.75
2022-08-17T16:42:24.673Z,99562.03
2022-08-17T16:44:54.790Z,99561.22
2022-08-17T16:47:24.175Z,99563.34
2022-08-17T16:49:53.491Z,99574.19
2022-08-17T16:52:32.593Z,99574.06
2022-08-17T16:55:04.471Z,99569.25
2022-08-17T16:57:33.198Z,99573.66
2022-08-17T17:00:02.156Z,99573.38
2022-08-17T17:02:33.471Z,99577.97
2022-08-17T17:05:13.252Z,99588.28
2022-08-17T17:07:53.798Z,99589.31
2022-08-17T17:10:25.438Z,99588.81
2022-08-17T17:13:00.825Z,99596.56
2022-08-17T17:15:45.165Z,99601.81
2022-08-17T17:18:15.404Z,99605.56
2022-08-17T17:20:51.253Z,99608.31
2022-08-17T17:23:35.442Z,99608.16
2022-08-17T17:26:13.055Z,99607.00
2022-08-17T17:28:57.032Z,99605.03
2022-08-17T17:31:31.006Z,99601.53
2022-08-17T17:34:04.114Z,99607.44
2022-08-17T17:36:39.818Z,99608.94
2022-08-17T17:39:14.612Z,99605.06
2022-08-17T17:41:48.483Z,99602.44
2022-08-17T17:44:23.915Z,99601.09
2022-08-17T17:46:56.257Z,99596.44
2022-08-17T17:49:26.722Z,99597.09
2022-08-17T17:52:07.874Z,99605.16
2022-08-17T17:54:52.784Z,99608.69
2022-08-17T17:57:34.454Z,99605.03
2022-08-17T18:00:09.538Z,99608.22
2022-08-17T18:02:51.882Z,99612.94
2022-08-17T18:05:48.825Z,99620.13
2022-08-17T18:08:37.666Z,99620.28
2022-08-17T18:11:24.601Z,99625.00
2022-08-17T18:14:14.590Z,99631.34
2022-08-17T18:16:44.107Z,99632.66
2022-08-17T18:19:15.283Z,99633.66
2022-08-17T18:21:47.118Z,99638.03
2022-08-17T18:24:15.954Z,99634.63
2022-08-17T18:26:55.112Z,99633.75
2022-08-17T18:29:34.546Z,99628.19
2022-08-17T18:32:23.131Z,99625.88
2022-08-17T18:34:54.479Z,99631.38
2022-08-17T18:37:45.207Z,99633.19
2022-08-17T18:40:34.716Z,99638.69
2022-08-17T18:43:08.617Z,99640.16
2022-08-17T18:45:41.890Z,99646.84
2022-08-17T18:48:24.901Z,99643.44
2022-08-17T18:50:55.347Z,99642.03
2022-08-17T18:53:34.189Z,99649.00
2022-08-17T18:56:24.691Z,99646.97
2022-08-17T18:59:11.652Z,99650.25
2022-08-17T19:01:54.610Z,99651.56
2022-08-17T19:04:34.090Z,99654.22
2022-08-17T19:07:09.387Z,99651.47
2022-08-17T19:09:43.778Z,99644.91
2022-08-17T19:12:27.211Z,99655.53
2022-08-17T19:14:59.778Z,99649.97
2022-08-17T19:17:37.985Z,99649.59
2022-08-17T19:20:13.463Z,99656.97
2022-08-17T19:23:10.428Z,99652.25
2022-08-17T19:25:44.472Z,99648.16
2022-08-17T19:28:22.641Z,99654.81
2022-08-17T19:30:57.371Z,99656.78
2022-08-17T19:33:28.090Z,99660.91
2022-08-17T19:36:07.741Z,99655.03
2022-08-17T19:38:43.737Z,99663.66
2022-08-17T19:41:20.982Z,99664.81
2022-08-17T19:44:00.595Z,99667.94
2022-08-17T19:46:48.584Z,99667.09
2022-08-17T19:49:33.045Z,99676.56
2022-08-17T19:52:24.221Z,99669.16
2022-08-17T19:55:01.974Z,99664.41
2022-08-17T19:57:40.854Z,99667.69
2022-08-17T20:00:13.438Z,99675.16
2022-08-17T20:02:55.680Z,99689.66
2022-08-17T20:05:44.231Z,99689.28
2022-08-17T20:08:25.532Z,99681.13
2022-08-17T20:10:59.481Z,99676.91
2022-08-17T20:13:35.193Z,99680.88
2022-08-17T20:16:05.407Z,99676.66
2022-08-17T20:18:47.518Z,99689.63
2022-08-17T20:21:23.412Z,99683.00
2022-08-17T20:23:57.043Z,99677.00
2022-08-17T20:26:30.935Z,99675.47
2022-08-17T20:29:36.930Z,99676.81
2022-08-17T20:32:29.997Z,99676.28
2022-08-17T20:35:21.078Z,99694.28
2022-08-17T20:38:01.748Z,99685.19
2022-08-17T20:40:38.472Z,99691.78
2022-08-17T20:43:46.307Z,99696.72
2022-08-17T20:46:29.478Z,99705.75
2022-08-17T20:49:20.583Z,99703.22
2022-08-17T20:52:02.981Z,99696.72
2022-08-17T20:54:49.135Z,99710.22
2022-08-17T20:57:47.591Z,99710.53
2022-08-17T21:00:45.536Z,99707.47
2022-08-17T21:03:51.281Z,99711.09
2022-08-17T21:06:28.456Z,99715.63
2022-08-17T21:09:20.991Z,99711.94
2022-08-17T21:12:04.343Z,99710.88
2022-08-17T21:14:58.267Z,99709.16
2022-08-17T21:17:42.150Z,99714.09
2022-08-17T21:20:27.832Z,99715.38
2022-08-17T21:23:30.060Z,99714.53
2022-08-17T21:26:28.106Z,99713.97
2022-08-17T21:29:30.943Z,99708.81
2022-08-17T21:32:24.736Z,99714.41
2022-08-17T21:35:25.086Z,99714.81
2022-08-17T21:38:00.521Z,99722.16
2022-08-17T21:40:33.366Z,99723.97
2022-08-17T21:43:20.310Z,99725.22
2022-08-17T21:45:57.929Z,99734.34
2022-08-17T21:48:30.066Z,99733.50
2022-08-17T21:51:05.991Z,99729.03
2022-08-17T21:53:42.306Z,99734.50
2022-08-17T21:56:14.989Z,99739.81
2022-08-17T21:58:48.694Z,99739.28
2022-08-17T22:01:25.746Z,99730.41
2022-08-17T22:04:09.103Z,99727.47
2022-08-17T22:06:41.558Z,99728.16
2022-08-17T22:09:19.111Z,99722.41
2022-08-17T22:11:55.184Z,99724.69
2022-08-17T22:14:53.444Z,99723.13
2022-08-17T22:17:21.040Z,99719.34
2022-08-17T22:19:54.765Z,99714.44
2022-08-17T22:22:31.039Z,99719.19
2022-08-17T22:25:04.326Z,99715.16
2022-08-17T22:28:04.067Z,99702.38
2022-08-17T22:30:39.893Z,99711.22
2022-08-17T22:33:31.709Z,99697.34
2022-08-17T22:36:13.131Z,99700.41
2022-08-17T22:38:43.607Z,99695.94
2022-08-17T22:41:37.123Z,99695.53
2022-08-17T22:44:23.691Z,99692.41
2022-08-17T22:47:00.436Z,99696.63
2022-08-17T22:49:33.883Z,99690.88
2022-08-17T22:52:08.711Z,99695.91
2022-08-17T22:54:55.261Z,99694.66
2022-08-17T22:57:51.901Z,99682.84
2022-08-17T23:00:34.651Z,99680.44
2022-08-17T23:03:14.085Z,99674.13
2022-08-17T23:05:45.776Z,99675.44
2022-08-17T23:08:15.466Z,99673.34
2022-08-17T23:10:46.701Z,99673.63
2022-08-17T23:13:15.585Z,99669.25
2022-08-17T23:15:44.788Z,99671.19
2022-08-17T23:18:15.014Z,99670.47
2022-08-17T23:20:44.068Z,99667.13
2022-08-17T23:23:15.380Z,99660.13
2022-08-17T23:25:46.939Z,99671.59
2022-08-17T23:28:17.164Z,99671.47
2022-08-17T23:30:49.038Z,99664.72
2022-08-17T23:33:26.284Z,99669.63
2022-08-17T23:35:55.310Z,99667.28
2022-08-17T23:38:25.644Z,99657.56
2022-08-17T23:40:54.795Z,99655.91
2022-08-17T23:43:28.144Z,99645.53
2022-08-17T23:45:59.958Z,99655.91
2022-08-17T23:48:36.571Z,99650.56
2022-08-17T23:51:13.993Z,99654.22
2022-08-17T23:53:47.864Z,99648.91
2022-08-17T23:56:20.813Z,99649.59
2022-08-17T23:58:49.689Z,99645.97
